createdAt,value
2018-12-01T00:00:09.337Z,21.21
2018-12-01T00:00:47.089Z,21.19
2018-12-01T00:01:24.559Z,21.20
2018-12-01T00:02:02.276Z,21.21
2018-12-01T00:02:40.152Z,21.20
2018-12-01T00:03:17.968Z,21.20
2018-12-01T00:03:55.583Z,21.20
2018-12-01T00:04:33.341Z,21.20
2018-12-01T00:05:10.976Z,21.20
2018-12-01T00:05:48.810Z,21.20
2018-12-01T00:06:26.920Z,21.20
2018-12-01T00:07:04.803Z,21.20
2018-12-01T00:07:42.669Z,21.20
2018-12-01T00:08:20.411Z,21.20
2018-12-01T00:08:58.281Z,21.21
2018-12-01T00:09:35.920Z,21.20
2018-12-01T00:10:13.954Z,21.20
2018-12-01T00:10:51.763Z,21.20
2018-12-01T00:11:29.549Z,21.20
2018-12-01T00:12:07.187Z,21.20
2018-12-01T00:12:44.916Z,21.21
2018-12-01T00:13:22.724Z,21.21
2018-12-01T00:14:00.872Z,21.21
2018-12-01T00:14:38.685Z,21.21
2018-12-01T00:15:16.109Z,21.20
2018-12-01T00:15:53.666Z,21.21
2018-12-01T00:16:31.738Z,21.20
2018-12-01T00:17:09.286Z,21.20
2018-12-01T00:17:47.075Z,21.20
2018-12-01T00:18:24.592Z,21.21
2018-12-01T00:19:02.309Z,21.21
2018-12-01T00:19:40.017Z,21.22
2018-12-01T00:20:17.818Z,21.21
2018-12-01T00:20:55.518Z,21.23
2018-12-01T00:21:33.232Z,21.25
2018-12-01T00:22:10.889Z,21.25
2018-12-01T00:22:48.441Z,21.25
2018-12-01T00:23:25.860Z,21.25
2018-12-01T00:24:03.710Z,21.25
2018-12-01T00:24:41.655Z,21.24
2018-12-01T00:25:19.577Z,21.25
2018-12-01T00:25:57.399Z,21.23
2018-12-01T00:26:35.390Z,21.23
2018-12-01T00:27:13.044Z,21.24
2018-12-01T00:27:51.154Z,21.22
2018-12-01T00:28:29.149Z,21.23
2018-12-01T00:29:07.885Z,21.23
2018-12-01T00:29:45.599Z,21.22
2018-12-01T00:30:23.623Z,21.23
2018-12-01T00:31:01.356Z,21.23
2018-12-01T00:31:39.016Z,21.23
2018-12-01T00:32:16.799Z,21.25
2018-12-01T00:32:55.115Z,21.22
2018-12-01T00:33:32.865Z,21.23
2018-12-01T00:34:10.642Z,21.23
2018-12-01T00:34:48.452Z,21.22
2018-12-01T00:35:26.138Z,21.23
2018-12-01T00:36:03.903Z,21.23
2018-12-01T00:36:41.867Z,21.24
2018-12-01T00:37:19.697Z,21.23
2018-12-01T00:37:57.398Z,21.23
2018-12-01T00:38:34.984Z,21.22
2018-12-01T00:39:12.482Z,21.26
2018-12-01T00:39:50.377Z,21.25
2018-12-01T00:40:27.953Z,21.18
2018-12-01T00:41:05.631Z,21.16
2018-12-01T00:41:43.598Z,21.17
2018-12-01T00:42:21.479Z,21.17
2018-12-01T00:42:59.173Z,21.17
2018-12-01T00:43:36.952Z,21.17
2018-12-01T00:44:14.813Z,21.19
2018-12-01T00:44:52.513Z,21.20
2018-12-01T00:45:30.049Z,21.21
2018-12-01T00:46:08.556Z,21.21
2018-12-01T00:46:46.351Z,21.22
2018-12-01T00:47:24.039Z,21.22
2018-12-01T00:48:01.841Z,21.23
2018-12-01T00:48:39.595Z,21.22
2018-12-01T00:49:17.394Z,21.23
2018-12-01T00:49:55.395Z,21.23
2018-12-01T00:50:33.307Z,21.22
2018-12-01T00:51:11.119Z,21.23
2018-12-01T00:51:48.742Z,21.22
2018-12-01T00:52:26.532Z,21.23
2018-12-01T00:53:04.557Z,21.22
2018-12-01T00:53:43.886Z,21.22
2018-12-01T00:54:21.872Z,21.22
2018-12-01T00:54:59.545Z,21.23
2018-12-01T00:55:37.183Z,21.22
2018-12-01T00:56:15.244Z,21.21
2018-12-01T00:56:52.952Z,21.21
2018-12-01T00:57:30.654Z,21.22
2018-12-01T00:58:08.424Z,21.22
2018-12-01T00:58:46.189Z,21.21
2018-12-01T00:59:24.073Z,21.21
2018-12-01T01:00:01.646Z,21.21
2018-12-01T01:00:39.483Z,21.22
2018-12-01T01:01:17.207Z,21.20
2018-12-01T01:01:55.185Z,21.21
2018-12-01T01:02:32.835Z,21.20
2018-12-01T01:03:10.772Z,21.21
2018-12-01T01:03:48.444Z,21.21
2018-12-01T01:04:26.674Z,21.20
2018-12-01T01:05:04.654Z,21.21
2018-12-01T01:05:42.225Z,21.20
2018-12-01T01:06:20.265Z,21.20
2018-12-01T01:06:58.058Z,21.21
2018-12-01T01:07:36.094Z,21.21
2018-12-01T01:08:13.884Z,21.20
2018-12-01T01:08:51.707Z,21.21
2018-12-01T01:09:29.603Z,21.21
2018-12-01T01:10:07.549Z,21.20
2018-12-01T01:10:45.224Z,21.21
2018-12-01T01:11:23.124Z,21.21
2018-12-01T01:12:01.626Z,21.20
2018-12-01T01:12:39.198Z,21.20
2018-12-01T01:13:16.881Z,21.20
2018-12-01T01:13:54.383Z,21.19
2018-12-01T01:14:32.052Z,21.19
2018-12-01T01:15:09.776Z,21.19
2018-12-01T01:15:47.393Z,21.20
2018-12-01T01:16:25.061Z,21.18
2018-12-01T01:17:02.767Z,21.18
2018-12-01T01:17:40.686Z,21.19
2018-12-01T01:18:18.676Z,21.18
2018-12-01T01:18:56.636Z,21.19
2018-12-01T01:19:34.467Z,21.18
2018-12-01T01:20:12.187Z,21.19
2018-12-01T01:20:50.037Z,21.18
2018-12-01T01:21:27.776Z,21.19
2018-12-01T01:22:05.420Z,21.18
2018-12-01T01:22:43.369Z,21.18
2018-12-01T01:23:21.240Z,21.19
2018-12-01T01:23:58.818Z,21.18
2018-12-01T01:24:36.384Z,21.19
2018-12-01T01:25:14.258Z,21.19
2018-12-01T01:25:51.827Z,21.19
2018-12-01T01:26:29.527Z,21.19
2018-12-01T01:27:07.495Z,21.19
2018-12-01T01:27:45.186Z,21.19
2018-12-01T01:28:22.981Z,21.19
2018-12-01T01:29:00.516Z,21.18
2018-12-01T01:29:38.197Z,21.19
2018-12-01T01:30:15.909Z,21.19
2018-12-01T01:30:53.877Z,21.20
2018-12-01T01:31:31.569Z,21.20
2018-12-01T01:32:09.472Z,21.20
2018-12-01T01:32:47.334Z,21.19
2018-12-01T01:33:25.070Z,21.20
2018-12-01T01:34:03.075Z,21.20
2018-12-01T01:34:41.147Z,21.19
2018-12-01T01:35:18.899Z,21.20
2018-12-01T01:35:56.808Z,21.19
2018-12-01T01:36:34.641Z,21.20
2018-12-01T01:37:12.581Z,21.19
2018-12-01T01:37:50.359Z,21.19
2018-12-01T01:38:27.953Z,21.19
2018-12-01T01:39:05.668Z,21.18
2018-12-01T01:39:44.130Z,21.19
2018-12-01T01:40:21.868Z,21.19
2018-12-01T01:40:59.518Z,21.19
2018-12-01T01:41:37.273Z,21.18
2018-12-01T01:42:14.749Z,21.19
2018-12-01T01:42:52.742Z,21.19
2018-12-01T01:43:30.450Z,21.18
2018-12-01T01:44:08.400Z,21.18
2018-12-01T01:44:46.243Z,21.18
2018-12-01T01:45:24.103Z,21.19
2018-12-01T01:46:02.239Z,21.18
2018-12-01T01:46:40.598Z,21.18
2018-12-01T01:47:18.578Z,21.18
2018-12-01T01:47:56.188Z,21.18
2018-12-01T01:48:34.194Z,21.17
2018-12-01T01:49:12.149Z,21.17
2018-12-01T01:49:50.053Z,21.18
2018-12-01T01:50:27.857Z,21.17
2018-12-01T01:51:05.700Z,21.18
2018-12-01T01:51:43.326Z,21.18
2018-12-01T01:52:20.886Z,21.18
2018-12-01T01:52:58.792Z,21.17
2018-12-01T01:53:36.581Z,21.18
2018-12-01T01:54:14.265Z,21.18
2018-12-01T01:54:52.160Z,21.18
2018-12-01T01:55:30.297Z,21.17
2018-12-01T01:56:07.993Z,21.17
2018-12-01T01:56:46.742Z,21.16
2018-12-01T01:57:24.621Z,21.18
2018-12-01T01:58:02.371Z,21.17
2018-12-01T01:58:40.113Z,21.16
2018-12-01T01:59:17.942Z,21.18
2018-12-01T01:59:55.737Z,21.18
2018-12-01T02:00:33.418Z,21.18
2018-12-01T02:01:11.206Z,21.17
2018-12-01T02:01:48.765Z,21.17
2018-12-01T02:02:26.573Z,21.16
2018-12-01T02:03:04.448Z,21.17
2018-12-01T02:03:42.272Z,21.17
2018-12-01T02:04:20.045Z,21.16
2018-12-01T02:04:57.751Z,21.17
2018-12-01T02:05:35.287Z,21.16
2018-12-01T02:06:13.202Z,21.16
2018-12-01T02:06:50.901Z,21.17
2018-12-01T02:08:07.912Z,21.16
2018-12-01T02:08:45.885Z,21.15
2018-12-01T02:09:23.561Z,21.15
2018-12-01T02:10:01.332Z,21.16
2018-12-01T02:10:39.144Z,21.15
2018-12-01T02:11:16.687Z,21.17
2018-12-01T02:11:54.434Z,21.15
2018-12-01T02:12:32.060Z,21.15
2018-12-01T02:13:09.885Z,21.16
2018-12-01T02:13:47.432Z,21.16
2018-12-01T02:14:25.663Z,21.15
2018-12-01T02:15:03.254Z,21.15
2018-12-01T02:15:41.183Z,21.16
2018-12-01T02:16:19.161Z,21.16
2018-12-01T02:16:56.967Z,21.16
2018-12-01T02:17:34.465Z,21.16
2018-12-01T02:18:12.144Z,21.16
2018-12-01T02:18:50.167Z,21.14
2018-12-01T02:19:27.952Z,21.15
2018-12-01T02:20:05.795Z,21.15
2018-12-01T02:20:43.453Z,21.15
2018-12-01T02:21:21.286Z,21.16
2018-12-01T02:21:59.151Z,21.16
2018-12-01T02:22:37.385Z,21.16
2018-12-01T02:23:15.195Z,21.15
2018-12-01T02:23:53.225Z,21.15
2018-12-01T02:24:30.947Z,21.15
2018-12-01T02:25:08.843Z,21.15
2018-12-01T02:25:46.788Z,21.15
2018-12-01T02:26:24.471Z,21.16
2018-12-01T02:27:02.289Z,21.15
2018-12-01T02:27:40.174Z,21.15
2018-12-01T02:28:18.045Z,21.15
2018-12-01T02:28:55.844Z,21.16
2018-12-01T02:29:33.576Z,21.15
2018-12-01T02:30:11.329Z,21.15
2018-12-01T02:30:49.023Z,21.15
2018-12-01T02:31:26.973Z,21.15
2018-12-01T02:32:04.665Z,21.15
2018-12-01T02:32:42.437Z,21.15
2018-12-01T02:33:20.153Z,21.14
2018-12-01T02:33:58.026Z,21.14
2018-12-01T02:34:36.722Z,21.15
2018-12-01T02:35:14.482Z,21.15
2018-12-01T02:35:52.211Z,21.15
2018-12-01T02:36:29.957Z,21.14
2018-12-01T02:37:07.711Z,21.15
2018-12-01T02:37:45.840Z,21.14
2018-12-01T02:38:23.588Z,21.15
2018-12-01T02:39:01.725Z,21.15
2018-12-01T02:39:40.053Z,21.14
2018-12-01T02:40:17.626Z,21.14
2018-12-01T02:40:55.485Z,21.15
2018-12-01T02:41:33.348Z,21.14
2018-12-01T02:42:11.308Z,21.14
2018-12-01T02:42:48.893Z,21.15
2018-12-01T02:43:26.915Z,21.14
2018-12-01T02:44:04.847Z,21.15
2018-12-01T02:44:42.708Z,21.14
2018-12-01T02:45:20.527Z,21.13
2018-12-01T02:45:58.199Z,21.14
2018-12-01T02:46:36.099Z,21.15
2018-12-01T02:47:14.080Z,21.14
2018-12-01T02:47:51.580Z,21.14
2018-12-01T02:48:29.212Z,21.14
2018-12-01T02:49:07.195Z,21.14
2018-12-01T02:49:44.935Z,21.13
2018-12-01T02:50:22.576Z,21.14
2018-12-01T02:51:00.559Z,21.13
2018-12-01T02:51:38.239Z,21.14
2018-12-01T02:52:16.138Z,21.13
2018-12-01T02:52:54.094Z,21.14
2018-12-01T02:53:31.863Z,21.14
2018-12-01T02:54:09.829Z,21.13
2018-12-01T02:54:47.848Z,21.14
2018-12-01T02:55:25.608Z,21.14
2018-12-01T02:56:03.493Z,21.14
2018-12-01T02:56:41.291Z,21.13
2018-12-01T02:57:19.026Z,21.13
2018-12-01T02:57:56.502Z,21.14
2018-12-01T02:58:34.569Z,21.14
2018-12-01T02:59:12.708Z,21.14
2018-12-01T02:59:50.588Z,21.13
2018-12-01T03:00:28.351Z,21.15
2018-12-01T03:01:06.268Z,21.13
2018-12-01T03:01:44.389Z,21.13
2018-12-01T03:02:22.413Z,21.13
2018-12-01T03:03:00.404Z,21.13
2018-12-01T03:03:38.202Z,21.14
2018-12-01T03:04:16.117Z,21.13
2018-12-01T03:04:54.079Z,21.15
2018-12-01T03:05:31.839Z,21.14
2018-12-01T03:06:09.620Z,21.14
2018-12-01T03:06:47.484Z,21.14
2018-12-01T03:07:25.643Z,21.13
2018-12-01T03:08:03.624Z,21.13
2018-12-01T03:08:41.183Z,21.14
2018-12-01T03:09:19.072Z,21.12
2018-12-01T03:09:56.610Z,21.13
2018-12-01T03:10:34.558Z,21.13
2018-12-01T03:11:12.292Z,21.13
2018-12-01T03:11:50.199Z,21.12
2018-12-01T03:12:28.127Z,21.13
2018-12-01T03:13:06.185Z,21.13
2018-12-01T03:13:43.637Z,21.12
2018-12-01T03:14:21.442Z,21.13
2018-12-01T03:14:59.032Z,21.12
2018-12-01T03:15:36.519Z,21.13
2018-12-01T03:16:14.429Z,21.12
2018-12-01T03:16:52.188Z,21.13
2018-12-01T03:17:29.980Z,21.13
2018-12-01T03:18:07.587Z,21.13
2018-12-01T03:18:45.277Z,21.13
2018-12-01T03:19:23.278Z,21.13
2018-12-01T03:20:00.877Z,21.13
2018-12-01T03:20:38.589Z,21.13
2018-12-01T03:21:16.222Z,21.13
2018-12-01T03:21:53.857Z,21.13
2018-12-01T03:22:31.531Z,21.14
2018-12-01T03:23:09.396Z,21.13
2018-12-01T03:23:47.147Z,21.14
2018-12-01T03:24:24.936Z,21.13
2018-12-01T03:25:02.833Z,21.13
2018-12-01T03:25:40.688Z,21.13
2018-12-01T03:26:18.807Z,21.13
2018-12-01T03:26:56.756Z,21.14
2018-12-01T03:27:34.583Z,21.13
2018-12-01T03:28:12.266Z,21.12
2018-12-01T03:28:50.186Z,21.13
2018-12-01T03:29:27.955Z,21.12
2018-12-01T03:30:05.621Z,21.13
2018-12-01T03:30:43.626Z,21.10
2018-12-01T03:31:21.281Z,21.12
2018-12-01T03:31:59.117Z,21.14
2018-12-01T03:32:36.640Z,21.14
2018-12-01T03:33:14.403Z,21.13
2018-12-01T03:33:52.420Z,21.13
2018-12-01T03:34:30.084Z,21.12
2018-12-01T03:35:07.915Z,21.12
2018-12-01T03:35:45.674Z,21.12
2018-12-01T03:36:23.669Z,21.12
2018-12-01T03:37:01.491Z,21.13
2018-12-01T03:37:39.333Z,21.14
2018-12-01T03:38:17.142Z,21.12
2018-12-01T03:38:55.228Z,21.13
2018-12-01T03:39:33.135Z,21.13
2018-12-01T03:40:10.923Z,21.13
2018-12-01T03:40:48.783Z,21.13
2018-12-01T03:41:26.612Z,21.13
2018-12-01T03:42:04.584Z,21.13
2018-12-01T03:42:42.432Z,21.13
2018-12-01T03:43:20.052Z,21.12
2018-12-01T03:43:57.991Z,21.13
2018-12-01T03:44:35.713Z,21.12
2018-12-01T03:45:13.572Z,21.14
2018-12-01T03:45:51.261Z,21.14
2018-12-01T03:46:29.082Z,21.13
2018-12-01T03:47:06.743Z,21.14
2018-12-01T03:47:44.327Z,21.14
2018-12-01T03:48:22.044Z,21.14
2018-12-01T03:48:59.712Z,21.14
2018-12-01T03:49:37.475Z,21.14
2018-12-01T03:50:15.648Z,21.14
2018-12-01T03:50:53.450Z,21.13
2018-12-01T03:51:31.072Z,21.14
2018-12-01T03:52:08.734Z,21.14
2018-12-01T03:52:46.436Z,21.14
2018-12-01T03:53:24.257Z,21.14
2018-12-01T03:54:02.099Z,21.15
2018-12-01T03:54:39.957Z,21.15
2018-12-01T03:55:17.676Z,21.14
2018-12-01T03:55:55.277Z,21.15
2018-12-01T03:56:33.191Z,21.14
2018-12-01T03:57:11.029Z,21.15
2018-12-01T03:57:49.039Z,21.15
2018-12-01T03:58:26.836Z,21.14
2018-12-01T03:59:04.688Z,21.15
2018-12-01T03:59:42.459Z,21.15
2018-12-01T04:00:20.185Z,21.15
2018-12-01T04:00:57.919Z,21.15
2018-12-01T04:01:35.768Z,21.15
2018-12-01T04:02:13.519Z,21.15
2018-12-01T04:02:51.195Z,21.15
2018-12-01T04:03:28.884Z,21.15
2018-12-01T04:04:06.541Z,21.15
2018-12-01T04:04:44.227Z,21.15
2018-12-01T04:05:21.977Z,21.15
2018-12-01T04:05:59.526Z,21.16
2018-12-01T04:06:37.097Z,21.15
2018-12-01T04:07:14.860Z,21.16
2018-12-01T04:07:52.566Z,21.16
2018-12-01T04:08:30.437Z,21.17
2018-12-01T04:09:08.556Z,21.17
2018-12-01T04:09:46.196Z,21.17
2018-12-01T04:10:23.941Z,21.17
2018-12-01T04:11:01.837Z,21.17
2018-12-01T04:11:39.731Z,21.17
2018-12-01T04:12:17.761Z,21.18
2018-12-01T04:12:55.618Z,21.18
2018-12-01T04:13:33.746Z,21.18
2018-12-01T04:14:11.395Z,21.19
2018-12-01T04:14:49.216Z,21.19
2018-12-01T04:15:27.100Z,21.19
2018-12-01T04:16:04.795Z,21.19
2018-12-01T04:16:42.608Z,21.19
2018-12-01T04:17:20.418Z,21.19
2018-12-01T04:17:58.286Z,21.20
2018-12-01T04:18:35.815Z,21.20
2018-12-01T04:19:13.523Z,21.21
2018-12-01T04:19:51.340Z,21.20
2018-12-01T04:20:29.132Z,21.20
2018-12-01T04:21:06.826Z,21.20
2018-12-01T04:21:44.675Z,21.20
2018-12-01T04:22:22.506Z,21.20
2018-12-01T04:23:00.335Z,21.21
2018-12-01T04:23:38.425Z,21.21
2018-12-01T04:24:16.138Z,21.20
2018-12-01T04:24:53.980Z,21.21
2018-12-01T04:25:31.899Z,21.21
2018-12-01T04:26:09.503Z,21.22
2018-12-01T04:26:47.227Z,21.21
2018-12-01T04:27:25.264Z,21.21
2018-12-01T04:28:02.946Z,21.21
2018-12-01T04:28:40.877Z,21.22
2018-12-01T04:29:18.796Z,21.23
2018-12-01T04:29:56.493Z,21.21
2018-12-01T04:30:34.625Z,21.22
2018-12-01T04:31:12.627Z,21.23
2018-12-01T04:31:50.158Z,21.22
2018-12-01T04:32:28.248Z,21.23
2018-12-01T04:33:06.024Z,21.23
2018-12-01T04:33:43.843Z,21.22
2018-12-01T04:34:21.417Z,21.22
2018-12-01T04:34:59.333Z,21.22
2018-12-01T04:35:37.106Z,21.23
2018-12-01T04:36:14.766Z,21.23
2018-12-01T04:36:52.385Z,21.23
2018-12-01T04:37:30.025Z,21.22
2018-12-01T04:38:07.915Z,21.23
2018-12-01T04:38:45.516Z,21.23
2018-12-01T04:39:23.286Z,21.24
2018-12-01T04:40:01.069Z,21.24
2018-12-01T04:40:38.822Z,21.24
2018-12-01T04:41:16.557Z,21.23
2018-12-01T04:41:54.356Z,21.25
2018-12-01T04:42:31.892Z,21.25
2018-12-01T04:43:09.584Z,21.25
2018-12-01T04:43:47.339Z,21.25
2018-12-01T04:44:25.496Z,21.24
2018-12-01T04:45:03.285Z,21.25
2018-12-01T04:45:41.140Z,21.25
2018-12-01T04:46:19.276Z,21.24
2018-12-01T04:46:57.011Z,21.26
2018-12-01T04:47:34.955Z,21.25
2018-12-01T04:48:12.781Z,21.23
2018-12-01T04:48:50.660Z,21.25
2018-12-01T04:49:28.506Z,21.25
2018-12-01T04:50:06.194Z,21.25
2018-12-01T04:50:44.385Z,21.22
2018-12-01T04:51:22.343Z,21.25
2018-12-01T04:51:59.907Z,21.25
2018-12-01T04:52:37.708Z,21.25
2018-12-01T04:53:15.494Z,21.26
2018-12-01T04:53:53.898Z,21.25
2018-12-01T04:54:31.429Z,21.26
2018-12-01T04:55:08.978Z,21.25
2018-12-01T04:55:48.210Z,21.25
2018-12-01T04:56:25.864Z,21.25
2018-12-01T04:57:03.586Z,21.27
2018-12-01T04:57:41.603Z,21.27
2018-12-01T04:58:20.021Z,21.25
2018-12-01T04:58:58.088Z,21.25
2018-12-01T04:59:35.805Z,21.27
2018-12-01T05:00:16.597Z,21.26
2018-12-01T05:00:54.237Z,21.26
2018-12-01T05:01:31.912Z,21.25
2018-12-01T05:02:10.026Z,21.27
2018-12-01T05:02:47.883Z,21.25
2018-12-01T05:03:25.705Z,21.26
2018-12-01T05:04:03.413Z,21.27
2018-12-01T05:04:41.296Z,21.25
2018-12-01T05:05:19.089Z,21.27
2018-12-01T05:05:57.052Z,21.26
2018-12-01T05:06:34.916Z,21.26
2018-12-01T05:07:12.804Z,21.25
2018-12-01T05:07:50.493Z,21.25
2018-12-01T05:08:28.296Z,21.27
2018-12-01T05:09:06.139Z,21.26
2018-12-01T05:09:43.869Z,21.27
2018-12-01T05:10:22.681Z,21.26
2018-12-01T05:11:00.785Z,21.26
2018-12-01T05:11:38.811Z,21.27
2018-12-01T05:12:16.483Z,21.26
2018-12-01T05:12:54.342Z,21.26
2018-12-01T05:13:32.226Z,21.27
2018-12-01T05:14:11.022Z,21.27
2018-12-01T05:14:48.727Z,21.27
2018-12-01T05:15:26.829Z,21.27
2018-12-01T05:16:04.445Z,21.27
2018-12-01T05:16:42.058Z,21.27
2018-12-01T05:17:19.675Z,21.27
2018-12-01T05:17:57.465Z,21.26
2018-12-01T05:18:35.324Z,21.26
2018-12-01T05:19:12.911Z,21.26
2018-12-01T05:19:50.884Z,21.26
2018-12-01T05:20:29.003Z,21.26
2018-12-01T05:21:06.960Z,21.27
2018-12-01T05:21:44.886Z,21.26
2018-12-01T05:22:22.809Z,21.26
2018-12-01T05:23:00.549Z,21.27
2018-12-01T05:23:38.415Z,21.26
2018-12-01T05:24:15.966Z,21.26
2018-12-01T05:24:53.830Z,21.26
2018-12-01T05:25:31.386Z,21.26
2018-12-01T05:26:09.225Z,21.26
2018-12-01T05:26:46.979Z,21.26
2018-12-01T05:27:24.666Z,21.27
2018-12-01T05:28:02.467Z,21.26
2018-12-01T05:28:40.420Z,21.27
2018-12-01T05:29:18.375Z,21.26
2018-12-01T05:29:56.812Z,21.27
2018-12-01T05:30:34.467Z,21.27
2018-12-01T05:31:12.314Z,21.27
2018-12-01T05:31:50.128Z,21.27
2018-12-01T05:32:27.596Z,21.26
2018-12-01T05:33:05.547Z,21.27
2018-12-01T05:33:43.395Z,21.27
2018-12-01T05:34:21.266Z,21.27
2018-12-01T05:34:59.207Z,21.27
2018-12-01T05:35:37.356Z,21.27
2018-12-01T05:36:15.229Z,21.27
2018-12-01T05:36:53.017Z,21.27
2018-12-01T05:37:30.900Z,21.28
2018-12-01T05:38:08.420Z,21.27
2018-12-01T05:38:46.338Z,21.27
2018-12-01T05:39:24.128Z,21.26
2018-12-01T05:40:02.928Z,21.27
2018-12-01T05:40:40.848Z,21.27
2018-12-01T05:41:18.410Z,21.28
2018-12-01T05:41:56.149Z,21.27
2018-12-01T05:42:33.820Z,21.27
2018-12-01T05:43:11.778Z,21.28
2018-12-01T05:43:49.802Z,21.27
2018-12-01T05:44:27.587Z,21.28
2018-12-01T05:45:05.288Z,21.27
2018-12-01T05:45:43.042Z,21.27
2018-12-01T05:46:20.922Z,21.27
2018-12-01T05:46:58.765Z,21.28
2018-12-01T05:47:36.687Z,21.27
2018-12-01T05:48:14.523Z,21.27
2018-12-01T05:48:52.421Z,21.28
2018-12-01T05:49:30.510Z,21.26
2018-12-01T05:50:08.263Z,21.26
2018-12-01T05:50:46.152Z,21.27
2018-12-01T05:51:24.302Z,21.27
2018-12-01T05:52:02.329Z,21.26
2018-12-01T05:52:39.884Z,21.27
2018-12-01T05:54:00.313Z,21.27
2018-12-01T05:54:38.096Z,21.27
2018-12-01T05:55:15.796Z,21.26
2018-12-01T05:55:53.428Z,21.27
2018-12-01T05:56:31.079Z,21.27
2018-12-01T05:57:09.047Z,21.27
2018-12-01T05:57:46.752Z,21.27
2018-12-01T05:58:24.614Z,21.27
2018-12-01T05:59:02.294Z,21.27
2018-12-01T05:59:40.004Z,21.27
2018-12-01T06:00:17.768Z,21.27
2018-12-01T06:00:55.431Z,21.27
2018-12-01T06:01:33.151Z,21.27
2018-12-01T06:02:11.015Z,21.26
2018-12-01T06:02:48.797Z,21.26
2018-12-01T06:03:26.715Z,21.26
2018-12-01T06:04:04.621Z,21.26
2018-12-01T06:04:42.291Z,21.27
2018-12-01T06:05:20.008Z,21.26
2018-12-01T06:05:57.736Z,21.27
2018-12-01T06:06:35.632Z,21.26
2018-12-01T06:07:13.382Z,21.26
2018-12-01T06:07:51.321Z,21.27
2018-12-01T06:08:29.221Z,21.27
2018-12-01T06:09:07.149Z,21.26
2018-12-01T06:09:44.959Z,21.27
2018-12-01T06:10:22.783Z,21.27
2018-12-01T06:11:00.713Z,21.26
2018-12-01T06:11:38.522Z,21.27
2018-12-01T06:12:16.223Z,21.26
2018-12-01T06:12:54.102Z,21.25
2018-12-01T06:13:31.621Z,21.26
2018-12-01T06:14:09.305Z,21.27
2018-12-01T06:14:47.533Z,21.25
2018-12-01T06:15:25.293Z,21.27
2018-12-01T06:16:03.200Z,21.26
2018-12-01T06:16:41.120Z,21.27
2018-12-01T06:17:18.814Z,21.26
2018-12-01T06:17:56.545Z,21.25
2018-12-01T06:18:34.273Z,21.26
2018-12-01T06:19:12.045Z,21.25
2018-12-01T06:19:49.925Z,21.26
2018-12-01T06:20:28.245Z,21.26
2018-12-01T06:21:06.089Z,21.26
2018-12-01T06:21:43.738Z,21.26
2018-12-01T06:22:21.403Z,21.26
2018-12-01T06:22:59.378Z,21.26
2018-12-01T06:23:37.086Z,21.26
2018-12-01T06:24:14.996Z,21.26
2018-12-01T06:24:52.733Z,21.25
2018-12-01T06:25:30.569Z,21.26
2018-12-01T06:26:08.227Z,21.25
2018-12-01T06:26:46.148Z,21.26
2018-12-01T06:27:23.994Z,21.25
2018-12-01T06:28:01.570Z,21.26
2018-12-01T06:28:39.283Z,21.26
2018-12-01T06:29:16.874Z,21.26
2018-12-01T06:29:54.555Z,21.26
2018-12-01T06:30:32.313Z,21.25
2018-12-01T06:31:09.996Z,21.25
2018-12-01T06:31:47.894Z,21.25
2018-12-01T06:32:25.626Z,21.26
2018-12-01T06:33:03.536Z,21.25
2018-12-01T06:33:41.139Z,21.27
2018-12-01T06:34:19.064Z,21.25
2018-12-01T06:34:56.990Z,21.25
2018-12-01T06:35:34.965Z,21.26
2018-12-01T06:36:12.589Z,21.25
2018-12-01T06:36:50.273Z,21.25
2018-12-01T06:37:27.957Z,21.25
2018-12-01T06:38:05.775Z,21.26
2018-12-01T06:38:43.396Z,21.25
2018-12-01T06:39:21.132Z,21.25
2018-12-01T06:39:59.000Z,21.26
2018-12-01T06:40:36.894Z,21.25
2018-12-01T06:41:14.907Z,21.26
2018-12-01T06:41:52.494Z,21.25
2018-12-01T06:42:30.086Z,21.25
2018-12-01T06:43:07.766Z,21.25
2018-12-01T06:43:45.525Z,21.26
2018-12-01T06:44:23.235Z,21.25
2018-12-01T06:45:00.748Z,21.25
2018-12-01T06:45:38.666Z,21.24
2018-12-01T06:46:16.528Z,21.25
2018-12-01T06:46:54.614Z,21.26
2018-12-01T06:47:32.475Z,21.25
2018-12-01T06:48:10.390Z,21.25
2018-12-01T06:48:48.167Z,21.26
2018-12-01T06:49:25.686Z,21.26
2018-12-01T06:50:03.386Z,21.26
2018-12-01T06:50:41.487Z,21.25
2018-12-01T06:51:19.169Z,21.26
2018-12-01T06:51:56.831Z,21.26
2018-12-01T06:52:34.453Z,21.26
2018-12-01T06:53:12.238Z,21.25
2018-12-01T06:53:50.072Z,21.25
2018-12-01T06:54:27.989Z,21.25
2018-12-01T06:55:05.767Z,21.25
2018-12-01T06:55:43.471Z,21.25
2018-12-01T06:56:21.288Z,21.26
2018-12-01T06:56:59.410Z,21.27
2018-12-01T06:57:36.937Z,21.25
2018-12-01T06:58:14.707Z,21.26
2018-12-01T06:58:52.397Z,21.26
2018-12-01T06:59:30.209Z,21.26
2018-12-01T07:00:08.168Z,21.25
2018-12-01T07:00:46.059Z,21.26
2018-12-01T07:01:23.670Z,21.25
2018-12-01T07:02:01.719Z,21.27
2018-12-01T07:02:39.733Z,21.26
2018-12-01T07:03:17.758Z,21.27
2018-12-01T07:03:55.844Z,21.26
2018-12-01T07:04:33.708Z,21.27
2018-12-01T07:05:11.374Z,21.27
2018-12-01T07:05:49.069Z,21.26
2018-12-01T07:06:26.840Z,21.25
2018-12-01T07:07:04.791Z,21.25
2018-12-01T07:07:42.815Z,21.27
2018-12-01T07:08:20.316Z,21.25
2018-12-01T07:08:57.920Z,21.26
2018-12-01T07:09:35.783Z,21.25
2018-12-01T07:10:14.069Z,21.26
2018-12-01T07:10:51.759Z,21.26
2018-12-01T07:11:29.820Z,21.27
2018-12-01T07:12:07.428Z,21.27
2018-12-01T07:12:45.002Z,21.25
2018-12-01T07:13:22.899Z,21.26
2018-12-01T07:14:00.499Z,21.25
2018-12-01T07:14:38.060Z,21.26
2018-12-01T07:15:15.874Z,21.26
2018-12-01T07:15:53.829Z,21.25
2018-12-01T07:16:32.232Z,21.25
2018-12-01T07:17:10.093Z,21.26
2018-12-01T07:17:47.721Z,21.26
2018-12-01T07:18:25.880Z,21.26
2018-12-01T07:19:03.798Z,21.26
2018-12-01T07:19:41.493Z,21.26
2018-12-01T07:20:19.469Z,21.26
2018-12-01T07:20:57.168Z,21.26
2018-12-01T07:21:35.050Z,21.25
2018-12-01T07:22:12.799Z,21.26
2018-12-01T07:22:50.923Z,21.26
2018-12-01T07:23:28.614Z,21.26
2018-12-01T07:24:06.429Z,21.25
2018-12-01T07:24:44.060Z,21.26
2018-12-01T07:25:22.055Z,21.26
2018-12-01T07:25:59.804Z,21.27
2018-12-01T07:26:37.672Z,21.26
2018-12-01T07:27:15.379Z,21.26
2018-12-01T07:27:53.142Z,21.25
2018-12-01T07:28:31.012Z,21.26
2018-12-01T07:29:08.480Z,21.26
2018-12-01T07:29:46.026Z,21.26
2018-12-01T07:30:23.721Z,21.26
2018-12-01T07:31:01.592Z,21.26
2018-12-01T07:31:39.340Z,21.26
2018-12-01T07:32:17.308Z,21.26
2018-12-01T07:32:55.017Z,21.27
2018-12-01T07:33:32.996Z,21.26
2018-12-01T07:34:10.701Z,21.27
2018-12-01T07:34:48.629Z,21.27
2018-12-01T07:35:26.458Z,21.28
2018-12-01T07:36:04.215Z,21.26
2018-12-01T07:36:42.187Z,21.26
2018-12-01T07:37:20.134Z,21.27
2018-12-01T07:37:57.821Z,21.27
2018-12-01T07:38:35.381Z,21.26
2018-12-01T07:39:13.243Z,21.27
2018-12-01T07:39:50.961Z,21.27
2018-12-01T07:40:28.740Z,21.27
2018-12-01T07:41:06.462Z,21.26
2018-12-01T07:41:44.131Z,21.27
2018-12-01T07:42:21.831Z,21.27
2018-12-01T07:42:59.476Z,21.27
2018-12-01T07:43:37.122Z,21.27
2018-12-01T07:44:14.952Z,21.28
2018-12-01T07:44:52.719Z,21.27
2018-12-01T07:45:30.411Z,21.27
2018-12-01T07:46:08.301Z,21.27
2018-12-01T07:46:46.013Z,21.27
2018-12-01T07:47:23.980Z,21.27
2018-12-01T07:48:02.133Z,21.28
2018-12-01T07:48:40.153Z,21.28
2018-12-01T07:49:17.869Z,21.27
2018-12-01T07:49:55.537Z,21.27
2018-12-01T07:50:33.196Z,21.27
2018-12-01T07:51:10.992Z,21.28
2018-12-01T07:51:48.825Z,21.27
2018-12-01T07:52:26.881Z,21.28
2018-12-01T07:53:04.874Z,21.27
2018-12-01T07:53:42.453Z,21.27
2018-12-01T07:54:20.357Z,21.28
2018-12-01T07:54:58.182Z,21.27
2018-12-01T07:55:36.143Z,21.28
2018-12-01T07:56:13.879Z,21.27
2018-12-01T07:56:51.667Z,21.29
2018-12-01T07:57:29.751Z,21.28
2018-12-01T07:58:07.412Z,21.28
2018-12-01T07:58:45.120Z,21.28
2018-12-01T07:59:22.850Z,21.28
2018-12-01T08:00:00.909Z,21.28
2018-12-01T08:00:38.591Z,21.27
2018-12-01T08:01:16.605Z,21.28
2018-12-01T08:01:54.139Z,21.28
2018-12-01T08:02:32.252Z,21.28
2018-12-01T08:03:10.298Z,21.29
2018-12-01T08:03:48.107Z,21.28
2018-12-01T08:04:25.947Z,21.28
2018-12-01T08:05:03.801Z,21.28
2018-12-01T08:05:41.497Z,21.28
2018-12-01T08:06:19.626Z,21.27
2018-12-01T08:06:57.527Z,21.29
2018-12-01T08:07:35.357Z,21.28
2018-12-01T08:08:13.085Z,21.27